Time;durP1;ratioP1;P1;durP2;ratioP2;P2;SDS_P1;SDS_P2;PMS_P1;PMS_P2;Temp;Humidity;BMP_temperature;BMP_pressure;BME280_temperature;BME280_humidity;BME280_pressure;Samples;Min_cycle;Max_cycle;Signal;HPM_P1;HPM_P2
2023/05/18 00:00:13;;;;;;;4.15;1.58;;;;;;;;;;5053211;28;20362;-73
2023/05/18 00:02:39;;;;;;;4.40;1.52;;;;;;;;;;5034672;28;20028;-73
2023/05/18 00:05:06;;;;;;;3.78;1.38;;;;;;;;;;5051437;28;20366;-73
2023/05/18 00:07:32;;;;;;;4.78;1.40;;;;;;;;;;5052318;28;20163;-73
2023/05/18 00:09:58;;;;;;;5.28;1.50;;;;;;;;;;5051317;28;20039;-73
2023/05/18 00:12:23;;;;;;;5.00;1.65;;;;;;;;;;5050840;28;20033;-73
2023/05/18 00:14:49;;;;;;;6.75;1.73;;;;;;;;;;5043294;28;20032;-73
2023/05/18 00:17:14;;;;;;;3.47;1.45;;;;;;;;;;5051066;28;20017;-73
2023/05/18 00:19:40;;;;;;;5.25;1.55;;;;;;;;;;5025007;28;20029;-74
2023/05/18 00:22:06;;;;;;;6.30;1.67;;;;;;;;;;5035594;28;20495;-73
2023/05/18 00:24:32;;;;;;;6.55;1.63;;;;;;;;;;5044896;28;20020;-73
2023/05/18 00:26:57;;;;;;;5.05;1.70;;;;;;;;;;5051134;28;20103;-73
2023/05/18 00:29:22;;;;;;;5.97;1.73;;;;;;;;;;5052731;28;20021;-73
2023/05/18 00:31:48;;;;;;;4.20;1.58;;;;;;;;;;5038765;28;20033;-75
2023/05/18 00:34:14;;;;;;;6.03;1.70;;;;;;;;;;5053267;28;20099;-73
2023/05/18 00:36:40;;;;;;;4.20;1.52;;;;;;;;;;5027048;28;20028;-74
2023/05/18 00:39:06;;;;;;;4.63;1.55;;;;;;;;;;5048995;28;20041;-75
2023/05/18 00:41:32;;;;;;;5.57;1.80;;;;;;;;;;5032773;28;20120;-73
2023/05/18 00:43:58;;;;;;;4.63;1.83;;;;;;;;;;5047138;28;20111;-73
2023/05/18 00:46:25;;;;;;;6.13;2.15;;;;;;;;;;5054408;28;20373;-74
2023/05/18 00:48:51;;;;;;;4.93;2.00;;;;;;;;;;5046584;28;20029;-73
2023/05/18 00:51:18;;;;;;;3.10;1.40;;;;;;;;;;5051572;28;20024;-73
2023/05/18 00:53:44;;;;;;;6.05;1.90;;;;;;;;;;5052344;28;20021;-73
2023/05/18 00:56:10;;;;;;;6.80;1.90;;;;;;;;;;5048739;28;20384;-74
2023/05/18 00:58:38;;;;;;;4.25;1.77;;;;;;;;;;5032100;28;20119;-73
2023/05/18 01:01:04;;;;;;;7.13;1.80;;;;;;;;;;5045573;28;20025;-74
2023/05/18 01:03:32;;;;;;;4.55;1.60;;;;;;;;;;5030524;28;20087;-74
2023/05/18 01:05:57;;;;;;;3.80;1.80;;;;;;;;;;5034135;28;20029;-73
2023/05/18 01:08:26;;;;;;;3.92;1.85;;;;;;;;;;5052753;28;20036;-73
2023/05/18 01:11:06;;;;;;;6.78;2.10;;;;;;;;;;5027779;28;20029;-74
2023/05/18 01:13:41;;;;;;;4.20;2.00;;;;;;;;;;5034635;28;20477;-73
2023/05/18 01:16:11;;;;;;;5.95;1.80;;;;;;;;;;5031806;28;20485;-73
2023/05/18 01:18:46;;;;;;;3.88;1.67;;;;;;;;;;5049294;28;20482;-73
2023/05/18 01:21:30;;;;;;;4.40;1.88;;;;;;;;;;5043970;28;20500;-73
2023/05/18 01:24:07;;;;;;;5.32;1.88;;;;;;;;;;5049839;28;20032;-76
2023/05/18 01:26:36;;;;;;;5.03;1.70;;;;;;;;;;5042978;28;20044;-74
2023/05/18 01:29:05;;;;;;;5.35;1.58;;;;;;;;;;5029409;28;20037;-75
2023/05/18 01:31:31;;;;;;;5.38;1.73;;;;;;;;;;5024555;28;20380;-75
2023/05/18 01:33:57;;;;;;;5.15;1.90;;;;;;;;;;5054136;28;20025;-73
2023/05/18 01:36:22;;;;;;;4.55;1.73;;;;;;;;;;5051063;28;20038;-77
2023/05/18 01:38:48;;;;;;;3.65;1.77;;;;;;;;;;5053624;28;20029;-73
2023/05/18 01:41:22;;;;;;;3.33;1.63;;;;;;;;;;5055563;28;20103;-73
2023/05/18 01:44:14;;;;;;;5.50;1.75;;;;;;;;;;5055762;28;20063;-73
2023/05/18 01:46:56;;;;;;;4.38;1.58;;;;;;;;;;5049981;28;20381;-73
2023/05/18 01:49:46;;;;;;;4.50;1.63;;;;;;;;;;5061988;28;20536;-73
2023/05/18 01:52:17;;;;;;;4.95;1.92;;;;;;;;;;5035210;28;20021;-73
2023/05/18 01:54:48;;;;;;;4.70;1.52;;;;;;;;;;5051469;28;20444;-76
2023/05/18 01:57:15;;;;;;;4.47;1.70;;;;;;;;;;5051430;28;20017;-74
2023/05/18 01:59:41;;;;;;;4.63;1.88;;;;;;;;;;5051505;28;20080;-74
2023/05/18 02:02:07;;;;;;;3.90;1.63;;;;;;;;;;5051871;28;20029;-73
2023/05/18 02:04:34;;;;;;;4.00;1.73;;;;;;;;;;5029650;28;20029;-74
2023/05/18 02:06:59;;;;;;;5.13;2.05;;;;;;;;;;5052683;28;20040;-73
2023/05/18 02:09:24;;;;;;;3.90;1.77;;;;;;;;;;5051979;28;20021;-73
2023/05/18 02:11:50;;;;;;;3.83;1.88;;;;;;;;;;5050890;28;20023;-74
2023/05/18 02:14:15;;;;;;;4.03;1.77;;;;;;;;;;5043805;28;20104;-73
2023/05/18 02:16:40;;;;;;;5.93;2.53;;;;;;;;;;5047665;28;20057;-73
2023/05/18 02:19:06;;;;;;;5.10;1.80;;;;;;;;;;5033676;28;20025;-73
2023/05/18 02:21:33;;;;;;;4.28;1.85;;;;;;;;;;5047226;28;20090;-73
2023/05/18 02:23:58;;;;;;;5.57;1.80;;;;;;;;;;5037149;28;20512;-74
2023/05/18 02:26:25;;;;;;;7.28;2.30;;;;;;;;;;5039325;28;20029;-73
2023/05/18 02:28:50;;;;;;;5.60;1.80;;;;;;;;;;5032079;28;20025;-73
2023/05/18 02:31:16;;;;;;;4.40;1.70;;;;;;;;;;5044760;28;20385;-74
2023/05/18 02:33:41;;;;;;;6.07;1.98;;;;;;;;;;5037012;28;20493;-73
2023/05/18 02:36:11;;;;;;;5.15;1.98;;;;;;;;;;5048831;28;20028;-73
2023/05/18 02:38:41;;;;;;;4.47;2.13;;;;;;;;;;5034330;28;20032;-73
2023/05/18 02:41:10;;;;;;;5.70;2.17;;;;;;;;;;5053168;28;20029;-73
2023/05/18 02:43:36;;;;;;;4.55;1.90;;;;;;;;;;5052451;28;20033;-73
2023/05/18 02:46:02;;;;;;;5.13;1.63;;;;;;;;;;5034289;28;20027;-73
2023/05/18 02:48:28;;;;;;;4.32;2.17;;;;;;;;;;5032884;28;20021;-73
2023/05/18 02:50:54;;;;;;;4.38;2.10;;;;;;;;;;5046883;28;20108;-73
2023/05/18 02:53:20;;;;;;;3.03;1.42;;;;;;;;;;5038869;28;20035;-73
2023/05/18 02:55:46;;;;;;;4.85;1.85;;;;;;;;;;5046846;28;20024;-73
2023/05/18 02:58:14;;;;;;;6.30;2.25;;;;;;;;;;5049918;28;20500;-73
2023/05/18 03:00:40;;;;;;;5.22;2.08;;;;;;;;;;5053262;28;20116;-73
2023/05/18 03:03:09;;;;;;;5.03;2.00;;;;;;;;;;5057222;28;20053;-76
2023/05/18 03:05:35;;;;;;;3.78;1.83;;;;;;;;;;5041435;28;20491;-73
2023/05/18 03:08:01;;;;;;;4.72;2.00;;;;;;;;;;5028837;28;20549;-73
2023/05/18 03:10:26;;;;;;;5.60;2.47;;;;;;;;;;5030121;28;20108;-73
2023/05/18 03:12:51;;;;;;;5.35;2.08;;;;;;;;;;5050404;28;20033;-73
2023/05/18 03:15:17;;;;;;;8.10;2.25;;;;;;;;;;5048030;28;20024;-74
2023/05/18 03:17:42;;;;;;;5.45;2.00;;;;;;;;;;5049272;28;20112;-73
2023/05/18 03:20:13;;;;;;;3.88;1.75;;;;;;;;;;5050597;28;20040;-73
2023/05/18 03:22:39;;;;;;;4.93;2.30;;;;;;;;;;5025899;28;20092;-73
2023/05/18 03:25:05;;;;;;;7.40;2.13;;;;;;;;;;5049385;28;20028;-73
2023/05/18 03:27:30;;;;;;;3.92;1.90;;;;;;;;;;5049644;28;20099;-74
2023/05/18 03:29:56;;;;;;;5.55;2.30;;;;;;;;;;5034339;28;20025;-74
2023/05/18 03:32:23;;;;;;;5.75;1.88;;;;;;;;;;5045176;28;20067;-73
2023/05/18 03:34:49;;;;;;;8.00;1.98;;;;;;;;;;5043136;28;20548;-75
2023/05/18 03:37:15;;;;;;;7.22;2.20;;;;;;;;;;5036850;28;20386;-73
2023/05/18 03:39:41;;;;;;;4.97;1.90;;;;;;;;;;5050683;28;20024;-73
2023/05/18 03:42:06;;;;;;;4.15;2.00;;;;;;;;;;5036803;28;20028;-73
2023/05/18 03:44:31;;;;;;;4.22;1.88;;;;;;;;;;5035838;28;20032;-73
2023/05/18 03:46:57;;;;;;;4.50;1.80;;;;;;;;;;5034229;28;20155;-73
2023/05/18 03:49:22;;;;;;;5.57;2.08;;;;;;;;;;5051011;28;20075;-73
2023/05/18 03:51:47;;;;;;;5.95;2.13;;;;;;;;;;5041185;28;20404;-74
2023/05/18 03:54:13;;;;;;;5.72;1.90;;;;;;;;;;5055759;28;20381;-73
2023/05/18 03:56:38;;;;;;;4.82;2.40;;;;;;;;;;5055875;28;20037;-74
2023/05/18 03:59:03;;;;;;;4.78;2.20;;;;;;;;;;5041928;28;20032;-73
2023/05/18 04:01:32;;;;;;;5.63;2.20;;;;;;;;;;5041594;28;20025;-73
2023/05/18 04:03:59;;;;;;;4.35;1.73;;;;;;;;;;5050892;28;20033;-73
2023/05/18 04:06:25;;;;;;;6.95;2.17;;;;;;;;;;5052225;28;20033;-73
2023/05/18 04:08:53;;;;;;;8.07;2.88;;;;;;;;;;5034950;28;20535;-73
2023/05/18 04:11:20;;;;;;;4.47;2.00;;;;;;;;;;5037604;28;20024;-74
2023/05/18 04:13:46;;;;;;;6.15;1.77;;;;;;;;;;5052541;28;20025;-76
2023/05/18 04:16:12;;;;;;;4.70;2.10;;;;;;;;;;5049592;28;20024;-73
2023/05/18 04:18:38;;;;;;;5.20;2.20;;;;;;;;;;5036124;28;20024;-73
2023/05/18 04:21:05;;;;;;;5.68;1.95;;;;;;;;;;5054300;28;20025;-73
2023/05/18 04:23:32;;;;;;;4.60;2.15;;;;;;;;;;5031920;28;20036;-73
2023/05/18 04:25:58;;;;;;;4.70;2.03;;;;;;;;;;5049379;28;20021;-73
2023/05/18 04:28:23;;;;;;;7.55;2.40;;;;;;;;;;5046115;28;20374;-74
2023/05/18 04:30:50;;;;;;;6.40;2.22;;;;;;;;;;5042818;28;20025;-75
2023/05/18 04:33:16;;;;;;;4.13;2.10;;;;;;;;;;5046502;28;20025;-74
2023/05/18 04:35:41;;;;;;;5.75;2.50;;;;;;;;;;5026415;28;20116;-73
2023/05/18 04:38:06;;;;;;;7.18;2.40;;;;;;;;;;5047289;28;20025;-73
2023/05/18 04:40:32;;;;;;;3.92;2.30;;;;;;;;;;5048423;28;20029;-74
2023/05/18 04:42:59;;;;;;;5.00;2.30;;;;;;;;;;5027270;28;20481;-74
2023/05/18 04:45:25;;;;;;;4.28;2.10;;;;;;;;;;5049231;28;20100;-73
2023/05/18 04:47:53;;;;;;;3.92;1.83;;;;;;;;;;5055257;28;20115;-73
2023/05/18 04:50:19;;;;;;;4.43;2.03;;;;;;;;;;5039544;28;20060;-74
2023/05/18 04:52:49;;;;;;;9.65;2.42;;;;;;;;;;5055411;28;20021;-74
2023/05/18 04:55:24;;;;;;;6.18;2.20;;;;;;;;;;5049555;28;20032;-74
2023/05/18 04:57:52;;;;;;;6.90;2.30;;;;;;;;;;5054670;28;20025;-73
2023/05/18 05:00:19;;;;;;;5.00;2.10;;;;;;;;;;5028044;28;20088;-73
2023/05/18 05:02:45;;;;;;;4.93;2.30;;;;;;;;;;5044934;28;20050;-76
2023/05/18 05:05:10;;;;;;;4.53;2.15;;;;;;;;;;5059062;28;20124;-73
2023/05/18 05:07:36;;;;;;;6.22;2.22;;;;;;;;;;5047003;28;20112;-74
2023/05/18 05:10:02;;;;;;;6.28;2.50;;;;;;;;;;5046676;28;20037;-73
2023/05/18 05:12:27;;;;;;;5.85;2.22;;;;;;;;;;5042612;28;20068;-73
2023/05/18 05:14:53;;;;;;;5.22;2.03;;;;;;;;;;5026924;28;20622;-74
2023/05/18 05:17:18;;;;;;;6.65;2.80;;;;;;;;;;5041114;28;20029;-73
2023/05/18 05:19:44;;;;;;;6.93;2.33;;;;;;;;;;5056024;28;20036;-73
2023/05/18 05:22:10;;;;;;;7.10;2.80;;;;;;;;;;5033681;28;20031;-73
2023/05/18 05:24:35;;;;;;;5.00;2.40;;;;;;;;;;5047257;28;20060;-75
2023/05/18 05:27:00;;;;;;;7.75;2.40;;;;;;;;;;5046804;28;20025;-73
2023/05/18 05:29:26;;;;;;;7.53;2.35;;;;;;;;;;5026425;28;20555;-73
2023/05/18 05:31:52;;;;;;;5.63;2.33;;;;;;;;;;5056060;28;20052;-73
2023/05/18 05:34:17;;;;;;;6.70;2.30;;;;;;;;;;5036180;28;20486;-73
2023/05/18 05:36:42;;;;;;;5.30;2.20;;;;;;;;;;5030153;28;20087;-73
2023/05/18 05:39:08;;;;;;;4.82;2.30;;;;;;;;;;5030621;28;20036;-74
2023/05/18 05:41:33;;;;;;;5.15;2.08;;;;;;;;;;5049563;28;20025;-75
2023/05/18 05:43:59;;;;;;;6.22;2.65;;;;;;;;;;5049611;28;20052;-74
2023/05/18 05:46:24;;;;;;;4.65;2.22;;;;;;;;;;5046541;28;20051;-73
2023/05/18 05:48:50;;;;;;;7.18;2.53;;;;;;;;;;5045016;28;20168;-73
2023/05/18 05:51:16;;;;;;;7.10;2.28;;;;;;;;;;5032164;28;20393;-73
2023/05/18 05:53:42;;;;;;;5.75;2.22;;;;;;;;;;5049403;28;20401;-74
2023/05/18 05:56:07;;;;;;;6.10;2.95;;;;;;;;;;5035320;28;20025;-73
2023/05/18 05:58:33;;;;;;;6.07;2.70;;;;;;;;;;5044280;28;20025;-73
2023/05/18 06:00:58;;;;;;;5.50;2.30;;;;;;;;;;5046525;28;20032;-73
2023/05/18 06:03:23;;;;;;;4.68;2.40;;;;;;;;;;5049279;28;20461;-73
2023/05/18 06:05:49;;;;;;;7.38;2.47;;;;;;;;;;5054204;28;20389;-73
2023/05/18 06:08:15;;;;;;;7.57;2.88;;;;;;;;;;5029431;28;20068;-73
2023/05/18 06:10:41;;;;;;;4.20;2.10;;;;;;;;;;5050426;28;20029;-73
2023/05/18 06:13:07;;;;;;;7.00;2.15;;;;;;;;;;5064910;28;20101;-74
2023/05/18 06:15:32;;;;;;;4.20;2.22;;;;;;;;;;5048256;28;20395;-73
2023/05/18 06:17:57;;;;;;;7.28;2.58;;;;;;;;;;5050414;28;20087;-73
2023/05/18 06:20:23;;;;;;;6.32;2.70;;;;;;;;;;5026986;28;20043;-73
2023/05/18 06:22:48;;;;;;;4.22;2.20;;;;;;;;;;5029144;28;20036;-73
2023/05/18 06:25:14;;;;;;;7.72;2.47;;;;;;;;;;5025846;28;20021;-73
2023/05/18 06:27:41;;;;;;;6.38;2.28;;;;;;;;;;5034021;28;20462;-73
2023/05/18 06:30:09;;;;;;;7.63;2.10;;;;;;;;;;5043246;28;20025;-73
2023/05/18 06:32:36;;;;;;;6.07;2.78;;;;;;;;;;5048703;28;20526;-75
2023/05/18 06:35:02;;;;;;;7.35;2.50;;;;;;;;;;5048783;28;20024;-74
2023/05/18 06:37:28;;;;;;;6.97;2.70;;;;;;;;;;5025505;28;20025;-74
2023/05/18 06:39:53;;;;;;;7.88;2.63;;;;;;;;;;5042655;28;20044;-74
2023/05/18 06:42:19;;;;;;;5.88;2.30;;;;;;;;;;5047336;28;20029;-73
2023/05/18 06:44:44;;;;;;;6.25;2.80;;;;;;;;;;5025476;28;20048;-75
2023/05/18 06:47:09;;;;;;;7.80;2.67;;;;;;;;;;5003611;28;1071828;-73
2023/05/18 06:49:35;;;;;;;7.20;2.70;;;;;;;;;;5039917;28;20154;-73
2023/05/18 06:52:00;;;;;;;5.70;2.80;;;;;;;;;;5052233;28;20400;-74
2023/05/18 06:54:28;;;;;;;6.47;2.63;;;;;;;;;;5046218;28;20035;-74
2023/05/18 06:56:53;;;;;;;6.75;2.33;;;;;;;;;;5026806;28;20504;-73
2023/05/18 06:59:18;;;;;;;5.38;2.35;;;;;;;;;;5046075;28;20038;-77
2023/05/18 07:01:44;;;;;;;7.53;3.05;;;;;;;;;;5024944;28;20029;-78
2023/05/18 07:04:09;;;;;;;6.07;2.53;;;;;;;;;;5045381;28;20032;-77
2023/05/18 07:06:35;;;;;;;6.93;3.15;;;;;;;;;;5052512;28;20029;-77
2023/05/18 07:09:02;;;;;;;7.22;2.72;;;;;;;;;;5051079;28;20021;-78
2023/05/18 07:11:27;;;;;;;5.50;2.30;;;;;;;;;;5047231;28;20048;-76
2023/05/18 07:13:52;;;;;;;6.90;2.70;;;;;;;;;;5050835;28;20461;-77
2023/05/18 07:16:17;;;;;;;7.97;2.60;;;;;;;;;;5032664;28;20370;-78
2023/05/18 07:18:43;;;;;;;9.00;2.85;;;;;;;;;;5052650;28;20102;-77
2023/05/18 07:21:09;;;;;;;8.45;2.75;;;;;;;;;;5051151;28;20095;-77
2023/05/18 07:23:34;;;;;;;7.75;2.83;;;;;;;;;;5052384;28;20021;-77
2023/05/18 07:26:00;;;;;;;5.28;2.30;;;;;;;;;;5052010;28;20036;-78
2023/05/18 07:28:25;;;;;;;8.82;2.63;;;;;;;;;;5046877;28;20029;-78
2023/05/18 07:30:51;;;;;;;7.60;3.25;;;;;;;;;;5048515;28;20025;-78
2023/05/18 07:33:16;;;;;;;7.20;2.40;;;;;;;;;;5050422;28;20029;-78
2023/05/18 07:35:41;;;;;;;8.43;3.03;;;;;;;;;;5045799;28;20025;-77
2023/05/18 07:38:07;;;;;;;9.85;3.20;;;;;;;;;;5050836;28;20156;-77
2023/05/18 07:40:32;;;;;;;7.10;3.10;;;;;;;;;;5047584;28;20457;-78
2023/05/18 07:42:57;;;;;;;7.43;2.90;;;;;;;;;;5037728;28;20111;-75
2023/05/18 07:45:23;;;;;;;5.55;3.05;;;;;;;;;;5051234;28;20033;-77
2023/05/18 07:47:49;;;;;;;9.18;2.90;;;;;;;;;;5043290;28;20025;-78
2023/05/18 07:50:14;;;;;;;8.02;3.05;;;;;;;;;;5045893;28;20028;-78
2023/05/18 07:52:39;;;;;;;9.05;3.00;;;;;;;;;;5043518;28;20413;-78
2023/05/18 07:55:05;;;;;;;6.38;2.85;;;;;;;;;;5048391;28;20045;-78
2023/05/18 07:57:32;;;;;;;8.40;3.00;;;;;;;;;;5039728;28;20056;-78
2023/05/18 07:59:57;;;;;;;8.93;3.40;;;;;;;;;;5051394;28;20028;-77
2023/05/18 08:02:23;;;;;;;7.15;2.97;;;;;;;;;;5049411;28;20440;-77
2023/05/18 08:04:48;;;;;;;6.50;2.95;;;;;;;;;;5051585;28;20048;-77
2023/05/18 08:07:14;;;;;;;9.45;3.05;;;;;;;;;;5048684;28;20025;-77
2023/05/18 08:09:39;;;;;;;7.13;3.00;;;;;;;;;;5022515;28;20087;-77
2023/05/18 08:12:05;;;;;;;10.50;3.17;;;;;;;;;;5047356;28;20036;-78
2023/05/18 08:14:31;;;;;;;8.40;2.83;;;;;;;;;;5044615;28;20103;-77
2023/05/18 08:16:56;;;;;;;5.75;3.15;;;;;;;;;;5027422;28;20107;-77
2023/05/18 08:19:21;;;;;;;8.68;3.17;;;;;;;;;;5046498;28;20072;-77
2023/05/18 08:21:47;;;;;;;9.13;3.60;;;;;;;;;;5046647;28;20021;-76
2023/05/18 08:24:12;;;;;;;8.85;3.28;;;;;;;;;;5048848;28;20029;-78
2023/05/18 08:26:38;;;;;;;7.63;2.97;;;;;;;;;;5048538;28;20017;-78
2023/05/18 08:29:08;;;;;;;8.02;3.15;;;;;;;;;;5047245;28;20412;-77
2023/05/18 08:31:37;;;;;;;7.35;3.30;;;;;;;;;;5040837;28;20036;-77
2023/05/18 08:34:06;;;;;;;6.97;2.97;;;;;;;;;;5046139;28;20025;-78
2023/05/18 08:36:36;;;;;;;8.65;3.17;;;;;;;;;;5025887;28;20017;-77
2023/05/18 08:39:02;;;;;;;8.40;3.17;;;;;;;;;;5040520;28;20052;-77
2023/05/18 08:41:31;;;;;;;8.15;3.00;;;;;;;;;;5044220;28;20026;-78
2023/05/18 08:44:05;;;;;;;9.65;3.20;;;;;;;;;;5025256;28;20491;-78
2023/05/18 08:46:33;;;;;;;8.95;3.40;;;;;;;;;;5026172;28;20025;-77
2023/05/18 08:49:00;;;;;;;7.50;3.03;;;;;;;;;;5033480;28;20531;-78
2023/05/18 08:51:28;;;;;;;6.13;2.67;;;;;;;;;;5022230;28;20032;-78
2023/05/18 08:53:54;;;;;;;8.35;3.13;;;;;;;;;;5048881;28;20532;-78
2023/05/18 08:56:21;;;;;;;6.43;2.95;;;;;;;;;;5034436;28;20172;-76
2023/05/18 08:58:51;;;;;;;7.65;3.10;;;;;;;;;;5049915;28;20462;-78
2023/05/18 09:01:16;;;;;;;7.65;2.83;;;;;;;;;;5053386;28;20486;-77
2023/05/18 09:03:43;;;;;;;7.28;2.58;;;;;;;;;;5048800;28;20171;-77
2023/05/18 09:06:09;;;;;;;8.75;3.10;;;;;;;;;;5048528;28;20477;-78
2023/05/18 09:08:35;;;;;;;6.22;2.38;;;;;;;;;;5039722;28;20035;-78
2023/05/18 09:11:02;;;;;;;8.73;2.95;;;;;;;;;;5047163;28;20473;-78
2023/05/18 09:13:28;;;;;;;8.77;2.50;;;;;;;;;;5027251;28;20477;-78
2023/05/18 09:15:53;;;;;;;7.00;2.40;;;;;;;;;;5049050;28;20082;-77
2023/05/18 09:18:19;;;;;;;5.40;2.05;;;;;;;;;;5042999;28;20412;-78
2023/05/18 09:20:44;;;;;;;5.85;2.50;;;;;;;;;;5043160;28;20076;-77
2023/05/18 09:23:14;;;;;;;9.35;2.83;;;;;;;;;;5043524;28;20032;-78
2023/05/18 09:25:44;;;;;;;7.78;2.50;;;;;;;;;;5044328;28;20041;-77
2023/05/18 09:28:13;;;;;;;7.57;2.78;;;;;;;;;;5042114;28;21286;-78
2023/05/18 09:30:42;;;;;;;11.50;2.70;;;;;;;;;;5042074;28;20420;-76
2023/05/18 09:33:20;;;;;;;8.15;1.95;;;;;;;;;;5038739;28;20056;-76
2023/05/18 09:35:46;;;;;;;6.18;2.50;;;;;;;;;;5044306;28;20324;-77
2023/05/18 09:38:16;;;;;;;5.22;2.00;;;;;;;;;;5028866;28;20486;-77
2023/05/18 09:40:45;;;;;;;6.78;2.83;;;;;;;;;;5044852;28;20385;-77
2023/05/18 09:43:10;;;;;;;5.88;2.20;;;;;;;;;;5036108;28;20527;-77
2023/05/18 09:45:42;;;;;;;6.75;2.60;;;;;;;;;;5045417;28;20045;-77
2023/05/18 09:48:08;;;;;;;9.88;2.70;;;;;;;;;;5034414;28;20464;-78
2023/05/18 09:50:36;;;;;;;8.05;2.45;;;;;;;;;;5049030;28;20024;-77
2023/05/18 09:53:04;;;;;;;6.18;2.80;;;;;;;;;;5043005;28;20124;-76
2023/05/18 09:55:30;;;;;;;8.93;2.40;;;;;;;;;;5049444;28;20079;-76
2023/05/18 09:57:56;;;;;;;6.55;2.53;;;;;;;;;;5048909;28;20041;-77
2023/05/18 10:00:21;;;;;;;8.15;2.70;;;;;;;;;;5047804;28;20362;-77
2023/05/18 10:02:50;;;;;;;5.18;2.15;;;;;;;;;;5049214;28;20028;-77
2023/05/18 10:05:30;;;;;;;4.78;2.20;;;;;;;;;;5029115;28;20031;-77
2023/05/18 10:07:57;;;;;;;5.47;2.20;;;;;;;;;;5049728;28;20023;-76
2023/05/18 10:10:28;;;;;;;5.88;2.33;;;;;;;;;;5051390;28;20024;-77
2023/05/18 10:12:54;;;;;;;8.38;2.25;;;;;;;;;;5050111;28;20053;-77
2023/05/18 10:15:21;;;;;;;6.07;1.95;;;;;;;;;;5032200;28;20484;-77
2023/05/18 10:17:49;;;;;;;6.72;2.63;;;;;;;;;;5041967;28;20029;-77
2023/05/18 10:20:18;;;;;;;6.90;2.55;;;;;;;;;;5023754;28;20018;-77
2023/05/18 10:22:45;;;;;;;5.68;2.35;;;;;;;;;;5053483;28;20041;-77
2023/05/18 10:25:18;;;;;;;5.82;2.58;;;;;;;;;;5032032;28;20500;-77
2023/05/18 10:27:47;;;;;;;6.35;2.20;;;;;;;;;;5040562;28;20518;-77
2023/05/18 10:30:13;;;;;;;6.78;2.50;;;;;;;;;;5030758;28;20037;-77
2023/05/18 10:32:39;;;;;;;7.82;2.25;;;;;;;;;;5053292;28;20029;-78
2023/05/18 10:35:06;;;;;;;6.35;2.40;;;;;;;;;;5033092;28;20036;-77
2023/05/18 10:37:36;;;;;;;7.10;2.47;;;;;;;;;;5043452;28;20501;-76
2023/05/18 10:40:02;;;;;;;7.03;2.42;;;;;;;;;;5044645;28;20021;-76
2023/05/18 10:42:29;;;;;;;4.85;2.30;;;;;;;;;;5050538;28;20071;-77
2023/05/18 10:44:56;;;;;;;8.05;2.67;;;;;;;;;;5049401;28;20119;-77
2023/05/18 10:47:24;;;;;;;4.68;2.40;;;;;;;;;;5042190;28;20024;-77
2023/05/18 10:49:51;;;;;;;6.00;2.53;;;;;;;;;;5051545;28;20063;-77
2023/05/18 10:52:17;;;;;;;4.68;1.92;;;;;;;;;;5043074;28;20075;-76
2023/05/18 10:54:42;;;;;;;7.78;2.42;;;;;;;;;;5041885;28;20020;-76
2023/05/18 10:57:15;;;;;;;8.85;2.67;;;;;;;;;;5030686;28;20108;-77
2023/05/18 10:59:42;;;;;;;8.63;2.60;;;;;;;;;;5045153;28;20040;-77
2023/05/18 11:02:09;;;;;;;7.28;2.65;;;;;;;;;;5031503;28;20025;-76
2023/05/18 11:04:38;;;;;;;6.07;2.30;;;;;;;;;;5041158;28;20021;-77
2023/05/18 11:07:04;;;;;;;6.85;2.40;;;;;;;;;;5029000;28;20025;-77
2023/05/18 11:09:30;;;;;;;7.22;2.63;;;;;;;;;;5039129;28;20024;-76
2023/05/18 11:11:56;;;;;;;5.88;2.47;;;;;;;;;;5053317;28;20441;-76
2023/05/18 11:14:29;;;;;;;7.30;2.47;;;;;;;;;;5043523;28;20509;-77
2023/05/18 11:17:31;;;;;;;7.20;2.42;;;;;;;;;;5044532;28;20025;-77
2023/05/18 11:20:03;;;;;;;6.72;2.60;;;;;;;;;;5044205;28;20496;-77
2023/05/18 11:23:00;;;;;;;6.72;2.28;;;;;;;;;;5042113;28;20017;-77
2023/05/18 11:25:31;;;;;;;6.28;2.83;;;;;;;;;;5053677;28;20044;-74
2023/05/18 11:28:04;;;;;;;6.00;2.47;;;;;;;;;;5050554;28;20107;-75
2023/05/18 11:30:32;;;;;;;8.65;2.78;;;;;;;;;;5048007;28;20121;-73
2023/05/18 11:33:16;;;;;;;7.88;2.60;;;;;;;;;;5046288;28;20028;-73
2023/05/18 11:36:06;;;;;;;5.65;2.78;;;;;;;;;;5043908;28;20036;-73
2023/05/18 11:38:48;;;;;;;9.40;2.70;;;;;;;;;;5043854;28;20052;-73
2023/05/18 11:41:30;;;;;;;6.97;2.45;;;;;;;;;;5047771;28;20104;-73
2023/05/18 11:44:11;;;;;;;7.78;2.97;;;;;;;;;;5032347;28;20504;-73
2023/05/18 11:46:40;;;;;;;6.47;2.78;;;;;;;;;;5051705;28;20036;-73
2023/05/18 11:49:08;;;;;;;5.55;2.80;;;;;;;;;;5053455;28;20119;-73
2023/05/18 11:51:59;;;;;;;7.25;3.08;;;;;;;;;;5050130;28;20031;-74
2023/05/18 11:54:25;;;;;;;5.47;2.60;;;;;;;;;;5053261;28;20481;-73
2023/05/18 11:56:54;;;;;;;6.97;2.38;;;;;;;;;;5032755;28;20086;-73
2023/05/18 11:59:37;;;;;;;8.60;2.60;;;;;;;;;;5052762;28;20508;-74
2023/05/18 12:02:03;;;;;;;5.80;3.10;;;;;;;;;;5035615;28;20021;-73
2023/05/18 12:04:30;;;;;;;6.18;2.80;;;;;;;;;;5048326;28;20077;-75
2023/05/18 12:06:56;;;;;;;5.10;2.60;;;;;;;;;;5035933;28;20024;-73
2023/05/18 12:09:22;;;;;;;8.80;3.08;;;;;;;;;;5049254;28;20374;-73
2023/05/18 12:11:48;;;;;;;5.90;2.65;;;;;;;;;;5051437;28;20025;-73
2023/05/18 12:14:14;;;;;;;7.72;2.55;;;;;;;;;;5051561;28;20032;-73
2023/05/18 12:16:40;;;;;;;6.85;2.58;;;;;;;;;;5050169;28;20031;-72
2023/05/18 12:19:06;;;;;;;6.32;2.60;;;;;;;;;;5053618;28;20013;-73
2023/05/18 12:21:35;;;;;;;7.95;2.60;;;;;;;;;;5031597;28;20135;-75
2023/05/18 12:24:02;;;;;;;6.10;2.55;;;;;;;;;;5055340;28;20037;-73
2023/05/18 12:26:28;;;;;;;6.07;2.45;;;;;;;;;;5027093;28;20563;-73
2023/05/18 12:28:54;;;;;;;6.80;2.50;;;;;;;;;;5046294;28;20115;-74
2023/05/18 12:31:20;;;;;;;6.45;2.42;;;;;;;;;;5036043;28;20274;-74
2023/05/18 12:33:45;;;;;;;7.30;2.92;;;;;;;;;;5028580;28;20108;-74
2023/05/18 12:36:12;;;;;;;5.82;2.50;;;;;;;;;;5023695;28;20017;-75
2023/05/18 12:38:37;;;;;;;8.25;2.63;;;;;;;;;;5030707;28;20104;-74
2023/05/18 12:41:03;;;;;;;8.15;2.70;;;;;;;;;;5043206;28;20459;-73
2023/05/18 12:43:35;;;;;;;9.75;2.97;;;;;;;;;;5039424;28;20017;-74
2023/05/18 12:46:04;;;;;;;4.40;2.40;;;;;;;;;;5049339;28;20033;-73
2023/05/18 12:48:37;;;;;;;8.30;2.88;;;;;;;;;;5030176;28;20025;-74
2023/05/18 12:51:02;;;;;;;6.38;2.58;;;;;;;;;;5024579;28;20032;-73
2023/05/18 12:53:40;;;;;;;4.50;2.38;;;;;;;;;;5043611;28;20029;-75
2023/05/18 12:56:08;;;;;;;4.82;2.22;;;;;;;;;;5042128;28;20025;-73
2023/05/18 12:58:34;;;;;;;7.60;2.90;;;;;;;;;;5046776;28;20029;-73
2023/05/18 13:01:06;;;;;;;8.40;2.70;;;;;;;;;;5046641;28;20059;-74
2023/05/18 13:03:32;;;;;;;5.60;2.93;;;;;;;;;;5043372;28;20037;-74
2023/05/18 13:06:03;;;;;;;5.13;2.65;;;;;;;;;;5026918;28;20083;-73
2023/05/18 13:08:30;;;;;;;9.88;3.22;;;;;;;;;;5030956;28;20098;-73
2023/05/18 13:11:03;;;;;;;7.20;2.95;;;;;;;;;;5046376;28;21926;-74
2023/05/18 13:13:29;;;;;;;8.05;2.65;;;;;;;;;;5043127;28;20465;-74
2023/05/18 13:15:55;;;;;;;5.95;2.30;;;;;;;;;;5051096;28;20052;-74
2023/05/18 13:18:20;;;;;;;5.90;2.42;;;;;;;;;;5047417;28;20091;-73
2023/05/18 13:20:50;;;;;;;7.00;2.70;;;;;;;;;;5051085;28;20052;-73
2023/05/18 13:23:22;;;;;;;5.53;2.83;;;;;;;;;;5029707;28;20028;-73
2023/05/18 13:25:48;;;;;;;8.02;2.67;;;;;;;;;;5048376;28;20024;-78
2023/05/18 13:28:20;;;;;;;5.57;2.40;;;;;;;;;;5046484;28;20468;-78
2023/05/18 13:30:47;;;;;;;7.65;2.50;;;;;;;;;;5053308;28;20025;-78
2023/05/18 13:33:15;;;;;;;8.18;2.88;;;;;;;;;;5049892;28;20503;-78
2023/05/18 13:35:41;;;;;;;6.45;2.70;;;;;;;;;;5053409;28;20021;-78
2023/05/18 13:38:16;;;;;;;10.27;3.63;;;;;;;;;;5049894;28;20024;-78
2023/05/18 13:40:41;;;;;;;5.68;2.45;;;;;;;;;;5032110;28;20116;-78
2023/05/18 13:43:07;;;;;;;8.30;3.20;;;;;;;;;;5048269;28;20163;-78
2023/05/18 13:45:34;;;;;;;4.82;2.60;;;;;;;;;;5027161;28;20032;-78
2023/05/18 13:48:00;;;;;;;5.60;2.42;;;;;;;;;;5050378;28;20027;-78
2023/05/18 13:50:25;;;;;;;5.93;2.33;;;;;;;;;;5036548;28;20025;-77
2023/05/18 13:52:51;;;;;;;5.45;2.78;;;;;;;;;;5030811;28;20112;-77
2023/05/18 13:55:17;;;;;;;5.70;2.70;;;;;;;;;;5027162;28;20083;-78
2023/05/18 13:57:43;;;;;;;6.20;2.75;;;;;;;;;;5036178;28;20029;-79
2023/05/18 14:00:12;;;;;;;6.95;2.90;;;;;;;;;;5032976;28;20444;-78
2023/05/18 14:02:42;;;;;;;6.97;2.90;;;;;;;;;;5048737;28;20021;-79
2023/05/18 14:05:09;;;;;;;5.45;2.47;;;;;;;;;;5045443;28;20068;-78
2023/05/18 14:07:35;;;;;;;4.28;2.30;;;;;;;;;;5044444;28;20025;-79
2023/05/18 14:10:02;;;;;;;6.60;2.67;;;;;;;;;;5052855;28;20108;-78
2023/05/18 14:12:27;;;;;;;6.25;2.65;;;;;;;;;;5046554;28;20020;-78
2023/05/18 14:14:52;;;;;;;8.07;2.80;;;;;;;;;;5026372;28;20037;-78
2023/05/18 14:17:18;;;;;;;5.70;2.58;;;;;;;;;;5046260;28;20032;-78
2023/05/18 14:19:43;;;;;;;6.05;2.45;;;;;;;;;;5053876;28;20141;-78
2023/05/18 14:22:09;;;;;;;7.03;2.60;;;;;;;;;;5026597;28;20025;-77
2023/05/18 14:24:34;;;;;;;4.28;2.40;;;;;;;;;;5046464;28;20199;-78
2023/05/18 14:27:00;;;;;;;5.07;2.80;;;;;;;;;;5027725;28;20032;-76
2023/05/18 14:29:25;;;;;;;4.00;2.40;;;;;;;;;;5051192;28;20025;-76
2023/05/18 14:31:50;;;;;;;5.05;2.60;;;;;;;;;;5044400;28;20036;-76
2023/05/18 14:34:16;;;;;;;5.25;2.55;;;;;;;;;;5049297;28;20026;-76
2023/05/18 14:36:41;;;;;;;5.47;2.67;;;;;;;;;;5051474;28;20128;-76
2023/05/18 14:39:06;;;;;;;6.45;2.72;;;;;;;;;;5048619;28;20073;-77
2023/05/18 14:41:32;;;;;;;6.47;2.38;;;;;;;;;;5046306;28;20029;-76
2023/05/18 14:43:57;;;;;;;4.97;2.80;;;;;;;;;;5041315;28;20055;-77